Time;durP1;ratioP1;P1;durP2;ratioP2;P2;SDS_P1;SDS_P2;PMS_P1;PMS_P2;Temp;Humidity;BMP_temperature;BMP_pressure;BME280_temperature;BME280_humidity;BME280_pressure;Samples;Min_cycle;Max_cycle;Signal;HPM_P1;HPM_P2
2021/01/20 00:01:31;;;;;;;3.53;1.55;;;6.00;99.90;;;;;;5069793;28;20212;-81
2021/01/20 00:03:58;;;;;;;3.50;1.60;;;5.80;99.90;;;;;;5056393;28;20233;-81
2021/01/20 00:06:25;;;;;;;3.45;1.50;;;5.80;99.90;;;;;;5055633;28;20247;-80
2021/01/20 00:08:52;;;;;;;4.93;1.80;;;6.00;99.90;;;;;;5076685;28;20209;-81
2021/01/20 00:11:18;;;;;;;3.35;1.50;;;5.90;99.90;;;;;;5065648;28;20214;-81
2021/01/20 00:13:45;;;;;;;5.55;1.67;;;5.80;99.90;;;;;;5074176;28;20224;-80
2021/01/20 00:16:12;;;;;;;3.30;1.75;;;5.80;99.90;;;;;;5064845;28;20229;-81
2021/01/20 00:18:38;;;;;;;3.50;1.73;;;5.80;99.90;;;;;;5062223;28;20267;-81
2021/01/20 00:21:05;;;;;;;3.60;1.90;;;6.00;99.90;;;;;;5078086;28;20202;-80
2021/01/20 00:23:32;;;;;;;3.10;1.40;;;5.70;99.90;;;;;;5057724;28;20226;-80
2021/01/20 00:25:59;;;;;;;4.82;2.00;;;5.90;99.90;;;;;;5057522;28;20230;-80
2021/01/20 00:28:26;;;;;;;3.90;2.05;;;5.90;99.90;;;;;;5073229;28;20198;-80
2021/01/20 00:30:54;;;;;;;3.90;1.80;;;5.90;99.90;;;;;;5061730;28;20207;-81
2021/01/20 00:33:20;;;;;;;3.65;1.67;;;5.90;99.90;;;;;;5076160;28;20194;-81
2021/01/20 00:35:47;;;;;;;3.53;1.70;;;5.80;99.90;;;;;;5059806;28;20234;-81
2021/01/20 00:38:13;;;;;;;4.10;1.65;;;5.70;99.90;;;;;;5056657;28;20214;-81
2021/01/20 00:40:40;;;;;;;3.90;1.60;;;5.80;99.90;;;;;;5069440;28;20526;-81
2021/01/20 00:43:07;;;;;;;3.78;1.48;;;5.70;99.90;;;;;;5075138;28;20267;-81
2021/01/20 00:45:34;;;;;;;3.95;1.90;;;5.60;99.90;;;;;;5056454;28;20321;-80
2021/01/20 00:48:00;;;;;;;4.47;1.55;;;5.70;99.90;;;;;;5058347;28;20206;-81
2021/01/20 00:50:27;;;;;;;4.03;1.60;;;5.80;99.90;;;;;;5057934;28;20252;-80
2021/01/20 00:52:53;;;;;;;4.47;2.13;;;5.70;99.90;;;;;;5059814;28;20194;-80
2021/01/20 00:55:20;;;;;;;3.75;1.80;;;5.50;99.90;;;;;;5056061;28;20261;-81
2021/01/20 00:57:48;;;;;;;5.30;1.55;;;5.50;99.90;;;;;;5073225;28;20206;-81
2021/01/20 01:00:15;;;;;;;4.85;1.80;;;5.60;99.90;;;;;;5072216;28;20202;-81
2021/01/20 01:02:41;;;;;;;3.53;1.70;;;5.40;99.90;;;;;;5058846;28;20221;-80
2021/01/20 01:05:09;;;;;;;3.70;1.73;;;5.40;99.90;;;;;;5057194;28;20202;-80
2021/01/20 01:07:36;;;;;;;3.60;1.73;;;5.40;99.90;;;;;;5073227;28;20206;-80
2021/01/20 01:10:04;;;;;;;4.60;1.75;;;5.30;99.90;;;;;;5072682;28;20360;-81
2021/01/20 01:12:30;;;;;;;3.30;1.60;;;5.40;99.90;;;;;;5067068;28;20208;-81
2021/01/20 01:14:58;;;;;;;3.75;1.98;;;5.20;99.90;;;;;;5073126;28;20213;-80
2021/01/20 01:17:24;;;;;;;3.22;1.65;;;5.30;99.90;;;;;;5071898;28;20202;-80
2021/01/20 01:19:51;;;;;;;4.65;2.00;;;5.20;99.90;;;;;;5060328;28;20202;-80
2021/01/20 01:22:17;;;;;;;5.00;2.00;;;4.90;99.90;;;;;;5071308;28;20674;-80
2021/01/20 01:24:44;;;;;;;4.15;1.90;;;5.10;99.90;;;;;;5072913;28;20558;-81
2021/01/20 01:27:10;;;;;;;3.60;1.90;;;5.30;99.90;;;;;;5069308;28;20222;-81
2021/01/20 01:29:37;;;;;;;3.72;1.60;;;5.10;99.90;;;;;;5065594;28;20213;-80
2021/01/20 01:32:06;;;;;;;3.95;1.80;;;5.20;99.90;;;;;;5072592;28;20225;-80
2021/01/20 01:34:33;;;;;;;5.00;1.60;;;5.00;99.90;;;;;;5073109;28;20208;-81
2021/01/20 01:36:59;;;;;;;3.20;1.70;;;5.20;99.90;;;;;;5071262;28;20241;-81
2021/01/20 01:39:26;;;;;;;3.00;1.30;;;5.10;99.90;;;;;;5074438;28;20212;-80
2021/01/20 01:41:52;;;;;;;3.47;1.60;;;4.90;99.90;;;;;;5062464;28;20214;-80
2021/01/20 01:44:19;;;;;;;4.45;1.60;;;5.00;99.90;;;;;;5054774;28;20227;-81
2021/01/20 01:46:46;;;;;;;4.22;1.80;;;5.20;99.90;;;;;;5072765;28;20236;-81
2021/01/20 01:49:14;;;;;;;4.25;1.70;;;5.30;99.90;;;;;;5071842;28;20263;-79
2021/01/20 01:51:40;;;;;;;3.50;1.63;;;5.20;99.90;;;;;;5069923;28;20202;-79
2021/01/20 01:54:08;;;;;;;3.42;1.50;;;4.90;99.90;;;;;;5066203;28;20742;-79
2021/01/20 01:56:35;;;;;;;5.25;1.85;;;5.00;99.90;;;;;;5076956;28;20228;-80
2021/01/20 01:59:02;;;;;;;4.18;2.08;;;5.30;99.90;;;;;;5059876;28;20217;-80
2021/01/20 02:01:29;;;;;;;4.50;2.08;;;5.00;99.90;;;;;;5057739;28;20525;-80
2021/01/20 02:03:55;;;;;;;4.30;1.90;;;5.00;99.90;;;;;;5078657;28;20283;-80
2021/01/20 02:06:23;;;;;;;4.47;1.95;;;5.10;99.90;;;;;;5072959;28;20251;-80
2021/01/20 02:08:51;;;;;;;3.83;1.80;;;5.20;99.90;;;;;;5058289;28;20229;-81
2021/01/20 02:11:31;;;;;;;3.80;1.83;;;5.00;99.90;;;;;;5073881;28;20206;-81
2021/01/20 02:14:05;;;;;;;4.13;1.77;;;5.10;99.90;;;;;;5068947;28;20198;-80
2021/01/20 02:16:33;;;;;;;4.38;1.98;;;5.30;99.90;;;;;;5073045;28;20371;-81
2021/01/20 02:19:09;;;;;;;5.25;2.00;;;5.10;99.90;;;;;;5055650;28;20213;-80
2021/01/20 02:21:55;;;;;;;5.45;1.50;;;5.00;99.90;;;;;;5067365;28;20212;-79
2021/01/20 02:24:32;;;;;;;4.65;1.67;;;5.00;99.90;;;;;;5052574;28;20226;-80
2021/01/20 02:27:05;;;;;;;4.15;1.42;;;5.20;99.90;;;;;;5053040;28;20227;-80
2021/01/20 02:29:41;;;;;;;3.67;1.65;;;5.00;99.90;;;;;;5051854;28;20668;-80
2021/01/20 02:32:11;;;;;;;3.58;1.60;;;5.00;99.90;;;;;;5053776;28;20202;-80
2021/01/20 02:34:39;;;;;;;6.35;2.03;;;5.10;99.90;;;;;;5054635;28;20221;-81
2021/01/20 02:37:07;;;;;;;4.47;1.77;;;5.10;99.90;;;;;;5074330;28;20238;-80
2021/01/20 02:39:34;;;;;;;3.13;1.30;;;4.90;99.90;;;;;;5073378;28;20228;-81
2021/01/20 02:42:02;;;;;;;3.35;1.40;;;5.10;99.90;;;;;;5053465;28;20207;-81
2021/01/20 02:44:29;;;;;;;2.80;1.30;;;5.20;99.90;;;;;;5052073;28;20265;-80
2021/01/20 02:46:55;;;;;;;3.75;2.10;;;5.30;99.90;;;;;;5071424;28;20650;-80
2021/01/20 02:49:23;;;;;;;2.90;1.38;;;5.30;99.90;;;;;;5063053;28;20203;-80
2021/01/20 02:51:56;;;;;;;3.90;1.45;;;5.10;99.90;;;;;;5060750;28;20205;-80
2021/01/20 02:54:25;;;;;;;4.03;1.80;;;5.20;99.90;;;;;;5071501;28;20853;-81
2021/01/20 02:56:53;;;;;;;4.07;1.63;;;5.00;99.90;;;;;;5064496;28;20295;-81
2021/01/20 02:59:22;;;;;;;3.65;1.80;;;5.10;99.90;;;;;;5051961;28;20215;-81
2021/01/20 03:01:52;;;;;;;4.85;1.50;;;5.00;99.90;;;;;;5053888;28;20353;-82
2021/01/20 03:04:24;;;;;;;3.65;1.52;;;4.90;99.90;;;;;;5052120;28;20226;-80
2021/01/20 03:06:53;;;;;;;4.28;1.85;;;4.80;99.90;;;;;;5069396;28;20226;-81
2021/01/20 03:09:20;;;;;;;4.47;1.67;;;4.90;99.90;;;;;;5060508;28;20354;-81
2021/01/20 03:11:47;;;;;;;3.33;1.63;;;4.90;99.90;;;;;;5053989;28;20219;-82
2021/01/20 03:14:15;;;;;;;3.72;1.50;;;5.00;99.90;;;;;;5064130;28;20198;-81
2021/01/20 03:16:41;;;;;;;3.58;1.65;;;5.20;99.90;;;;;;5057472;28;20779;-81
2021/01/20 03:19:08;;;;;;;3.00;1.25;;;5.20;99.90;;;;;;5054513;28;20586;-81
2021/01/20 03:21:35;;;;;;;3.38;1.42;;;5.10;99.90;;;;;;5070920;28;20554;-79
2021/01/20 03:24:02;;;;;;;3.42;1.40;;;5.00;99.90;;;;;;5073026;28;20226;-80
2021/01/20 03:26:29;;;;;;;3.55;1.33;;;4.80;99.90;;;;;;5056839;28;20238;-79
2021/01/20 03:28:55;;;;;;;3.58;1.50;;;5.00;99.90;;;;;;5055224;28;20214;-79
2021/01/20 03:31:22;;;;;;;3.70;1.50;;;4.80;99.90;;;;;;5072028;28;20198;-80
2021/01/20 03:33:48;;;;;;;4.70;1.63;;;4.80;99.90;;;;;;5075338;28;20639;-79
2021/01/20 03:36:15;;;;;;;3.42;1.70;;;4.90;99.90;;;;;;5061956;28;20601;-80
2021/01/20 03:38:42;;;;;;;3.20;1.35;;;5.00;99.90;;;;;;5074777;28;20267;-80
2021/01/20 03:41:09;;;;;;;3.50;1.83;;;4.90;99.90;;;;;;5057578;28;20207;-79
2021/01/20 03:43:35;;;;;;;3.20;1.40;;;5.10;99.90;;;;;;5055530;28;20252;-80
2021/01/20 03:46:02;;;;;;;3.33;1.42;;;5.00;99.90;;;;;;5070997;28;20256;-80
2021/01/20 03:48:32;;;;;;;4.50;1.40;;;5.20;99.90;;;;;;5072638;28;20510;-79
2021/01/20 03:50:58;;;;;;;4.28;1.48;;;5.00;99.90;;;;;;5059685;28;20262;-79
2021/01/20 03:53:26;;;;;;;3.22;1.35;;;5.20;99.90;;;;;;5063004;28;20194;-80
2021/01/20 03:55:54;;;;;;;2.97;1.40;;;4.90;99.90;;;;;;5074867;28;20221;-79
2021/01/20 03:58:20;;;;;;;4.63;1.58;;;4.80;99.90;;;;;;5069008;28;20661;-80
2021/01/20 04:00:47;;;;;;;3.00;1.27;;;4.70;99.90;;;;;;5073652;28;20234;-79
2021/01/20 04:03:13;;;;;;;3.38;1.35;;;4.90;99.90;;;;;;5065237;28;20221;-79
2021/01/20 04:05:40;;;;;;;4.18;2.05;;;4.80;99.90;;;;;;5073906;28;20302;-79
2021/01/20 04:08:07;;;;;;;4.40;1.80;;;4.70;99.90;;;;;;5073339;28;20206;-79
2021/01/20 04:10:33;;;;;;;3.17;1.65;;;4.60;99.90;;;;;;5076214;28;20228;-79
2021/01/20 04:13:01;;;;;;;3.20;1.30;;;4.70;99.90;;;;;;5074048;28;20293;-79
2021/01/20 04:15:27;;;;;;;4.25;1.58;;;5.00;99.90;;;;;;5074606;28;20230;-79
2021/01/20 04:17:54;;;;;;;4.97;1.70;;;4.80;99.90;;;;;;5075930;28;20263;-80
2021/01/20 04:20:20;;;;;;;3.40;1.55;;;4.60;99.90;;;;;;5079890;28;20255;-78
2021/01/20 04:22:47;;;;;;;3.88;1.55;;;4.50;99.90;;;;;;5069233;28;20237;-79
2021/01/20 04:25:13;;;;;;;3.17;1.60;;;4.70;99.90;;;;;;5057382;28;20253;-80
2021/01/20 04:27:40;;;;;;;5.82;1.80;;;4.70;99.90;;;;;;5064470;28;20206;-80
2021/01/20 04:30:09;;;;;;;3.20;1.60;;;4.50;99.90;;;;;;5058724;28;20211;-79
2021/01/20 04:32:36;;;;;;;3.78;1.65;;;4.60;99.90;;;;;;5058506;28;20209;-79
2021/01/20 04:35:03;;;;;;;3.40;1.48;;;4.70;99.90;;;;;;5079112;28;20210;-79
2021/01/20 04:37:29;;;;;;;4.07;2.05;;;4.60;99.90;;;;;;5070294;28;20225;-79
2021/01/20 04:39:55;;;;;;;4.82;1.60;;;4.80;99.90;;;;;;5066182;28;20202;-79
2021/01/20 04:42:22;;;;;;;3.55;1.60;;;4.90;99.90;;;;;;5061361;28;20207;-79
2021/01/20 04:44:49;;;;;;;3.00;1.65;;;4.80;99.90;;;;;;5054443;28;20213;-79
2021/01/20 04:47:16;;;;;;;3.78;1.60;;;4.90;99.90;;;;;;5053185;28;20234;-79
2021/01/20 04:49:45;;;;;;;3.95;1.80;;;4.80;99.90;;;;;;5071054;28;20206;-79
2021/01/20 04:52:17;;;;;;;3.88;1.45;;;4.70;99.90;;;;;;5059787;28;20205;-79
2021/01/20 04:54:44;;;;;;;4.72;1.73;;;5.00;99.90;;;;;;5073194;28;20664;-80
2021/01/20 04:57:13;;;;;;;2.70;1.25;;;5.00;99.90;;;;;;5063671;28;20229;-80
2021/01/20 04:59:42;;;;;;;3.72;1.67;;;4.90;99.90;;;;;;5074284;28;20197;-80
2021/01/20 05:02:10;;;;;;;5.03;2.20;;;5.10;99.90;;;;;;5077092;28;20230;-79
2021/01/20 05:04:38;;;;;;;4.10;1.92;;;4.80;99.90;;;;;;5071693;28;20352;-80
2021/01/20 05:07:06;;;;;;;4.55;1.90;;;4.90;99.90;;;;;;5069230;28;20222;-79
2021/01/20 05:09:33;;;;;;;4.97;1.63;;;4.90;99.90;;;;;;5073900;28;20293;-79
2021/01/20 05:12:00;;;;;;;4.20;2.05;;;4.90;99.90;;;;;;5065225;28;20523;-80
2021/01/20 05:14:27;;;;;;;4.20;2.30;;;4.90;99.90;;;;;;5057067;28;20202;-80
2021/01/20 05:17:05;;;;;;;3.53;1.80;;;4.80;99.90;;;;;;5058217;28;20226;-80
2021/01/20 05:19:37;;;;;;;4.07;1.90;;;4.80;99.90;;;;;;5075425;28;20303;-79
2021/01/20 05:22:05;;;;;;;4.85;1.70;;;5.00;99.90;;;;;;5072807;28;20202;-80
2021/01/20 05:24:33;;;;;;;3.60;1.98;;;5.00;99.90;;;;;;5072503;28;20370;-80
2021/01/20 05:27:00;;;;;;;3.83;1.42;;;5.20;99.90;;;;;;5066856;28;20223;-80
2021/01/20 05:29:27;;;;;;;6.25;1.70;;;5.20;99.90;;;;;;5055344;28;20222;-79
2021/01/20 05:31:53;;;;;;;5.28;2.10;;;5.20;99.90;;;;;;5055281;28;20216;-80
2021/01/20 05:34:24;;;;;;;3.85;1.80;;;5.20;99.90;;;;;;5057926;28;20202;-81
2021/01/20 05:37:10;;;;;;;4.88;1.40;;;5.30;99.90;;;;;;5060343;28;20257;-80
2021/01/20 05:39:38;;;;;;;3.53;1.95;;;5.30;99.90;;;;;;5055564;28;20221;-80
2021/01/20 05:42:07;;;;;;;3.17;1.50;;;5.40;99.90;;;;;;5054257;28;20636;-80
2021/01/20 05:44:34;;;;;;;3.83;1.60;;;5.20;99.90;;;;;;5067424;28;20225;-81
2021/01/20 05:47:08;;;;;;;3.60;1.70;;;5.30;99.90;;;;;;5069399;28;20665;-80
2021/01/20 05:49:35;;;;;;;3.50;1.35;;;5.20;99.90;;;;;;5062925;28;20206;-80
2021/01/20 05:52:01;;;;;;;3.33;1.60;;;5.30;99.90;;;;;;5071663;28;20208;-80
2021/01/20 05:54:36;;;;;;;3.92;1.95;;;5.50;99.90;;;;;;5054515;28;20587;-81
2021/01/20 05:57:14;;;;;;;4.57;1.98;;;5.30;99.90;;;;;;5059175;28;20652;-80
2021/01/20 05:59:41;;;;;;;3.92;2.15;;;5.50;99.90;;;;;;5071937;28;20208;-81
2021/01/20 06:02:09;;;;;;;4.35;2.20;;;5.30;99.90;;;;;;5055290;28;20207;-81
2021/01/20 06:04:36;;;;;;;5.78;2.20;;;5.50;99.90;;;;;;5059717;28;20232;-80
2021/01/20 06:07:04;;;;;;;3.85;1.83;;;5.50;99.90;;;;;;5058265;28;20262;-81
2021/01/20 06:09:35;;;;;;;4.80;1.65;;;5.40;99.90;;;;;;5072414;28;20202;-81
2021/01/20 06:12:03;;;;;;;4.53;1.70;;;5.60;99.90;;;;;;5074669;28;20212;-81
2021/01/20 06:14:30;;;;;;;4.05;1.35;;;5.70;99.90;;;;;;5056191;28;20573;-80
2021/01/20 06:17:04;;;;;;;4.53;1.65;;;5.60;99.90;;;;;;5052658;28;20230;-81
2021/01/20 06:19:32;;;;;;;4.28;2.08;;;5.70;99.90;;;;;;5055471;28;20339;-81
2021/01/20 06:22:00;;;;;;;4.65;1.77;;;5.80;99.90;;;;;;5072266;28;20205;-81
2021/01/20 06:24:39;;;;;;;3.28;1.70;;;6.00;99.90;;;;;;5072336;28;20230;-81
2021/01/20 06:27:12;;;;;;;3.55;1.77;;;5.90;99.90;;;;;;5054110;28;20234;-81
2021/01/20 06:29:44;;;;;;;3.33;1.65;;;6.00;99.90;;;;;;5060204;28;20209;-82
2021/01/20 06:32:19;;;;;;;4.32;2.17;;;6.20;99.90;;;;;;5072032;28;20248;-81
2021/01/20 06:34:51;;;;;;;4.10;1.80;;;6.10;99.90;;;;;;5071682;28;20292;-80
2021/01/20 06:37:34;;;;;;;3.75;2.00;;;6.30;99.90;;;;;;5070079;28;20294;-81
2021/01/20 06:40:03;;;;;;;5.45;2.25;;;6.30;99.90;;;;;;5051803;28;20212;-81
2021/01/20 06:42:32;;;;;;;7.15;2.53;;;6.20;99.90;;;;;;5056724;28;20297;-81
2021/01/20 06:45:14;;;;;;;5.25;2.13;;;6.20;99.90;;;;;;5073117;28;20245;-80
2021/01/20 06:48:06;;;;;;;4.75;2.25;;;6.30;99.90;;;;;;5067711;28;20229;-81
2021/01/20 06:51:03;;;;;;;5.80;2.63;;;6.20;99.90;;;;;;5062307;28;20695;-81
2021/01/20 06:53:29;;;;;;;4.85;1.75;;;6.10;99.90;;;;;;5060875;28;20206;-81
2021/01/20 06:55:57;;;;;;;4.45;2.47;;;6.10;99.90;;;;;;5067163;28;20704;-81
2021/01/20 06:58:26;;;;;;;4.97;2.25;;;6.10;99.90;;;;;;5072969;28;20255;-81
2021/01/20 07:01:12;;;;;;;4.82;2.10;;;6.10;99.90;;;;;;5076578;28;20284;-81
2021/01/20 07:03:39;;;;;;;4.63;2.72;;;5.80;99.90;;;;;;5078293;28;20246;-81
2021/01/20 07:06:41;;;;;;;4.32;2.13;;;5.90;99.90;;;;;;5072349;28;20225;-80
2021/01/20 07:09:09;;;;;;;5.10;2.60;;;5.90;99.90;;;;;;5056193;28;20206;-81
2021/01/20 07:12:07;;;;;;;4.47;2.47;;;6.00;99.90;;;;;;5060034;28;20202;-81
2021/01/20 07:14:33;;;;;;;6.32;4.40;;;5.90;99.90;;;;;;5079707;28;20210;-81
2021/01/20 07:17:00;;;;;;;5.50;2.47;;;6.00;99.90;;;;;;5077073;28;20230;-81
2021/01/20 07:19:27;;;;;;;4.18;2.10;;;6.00;99.90;;;;;;5057008;28;20242;-80
2021/01/20 07:21:55;;;;;;;3.50;2.10;;;6.20;99.90;;;;;;5077209;28;20202;-81
2021/01/20 07:24:22;;;;;;;4.18;1.98;;;6.30;99.90;;;;;;5070706;28;20218;-81
2021/01/20 07:26:49;;;;;;;6.28;2.53;;;6.10;99.90;;;;;;5058745;28;20731;-81
2021/01/20 07:29:23;;;;;;;4.68;2.40;;;6.30;99.90;;;;;;5055396;28;20214;-81
2021/01/20 07:31:51;;;;;;;5.88;2.00;;;6.30;99.90;;;;;;5065285;28;20214;-81
2021/01/20 07:34:18;;;;;;;6.10;2.10;;;6.30;99.90;;;;;;5075419;28;20224;-81
2021/01/20 07:36:45;;;;;;;4.50;2.20;;;6.40;99.90;;;;;;5071356;28;20670;-81
2021/01/20 07:39:22;;;;;;;5.25;2.20;;;6.40;99.90;;;;;;5070182;28;20202;-81
2021/01/20 07:41:53;;;;;;;4.78;1.90;;;6.30;99.90;;;;;;5057795;28;20202;-81
2021/01/20 07:44:20;;;;;;;4.47;2.33;;;6.70;99.90;;;;;;5058318;28;20215;-80
2021/01/20 07:46:57;;;;;;;4.05;1.95;;;6.50;99.90;;;;;;5056815;28;20260;-80
2021/01/20 07:49:23;;;;;;;4.03;1.90;;;6.70;99.90;;;;;;5058944;28;20202;-80
2021/01/20 07:51:59;;;;;;;5.97;2.30;;;6.60;99.90;;;;;;5063616;28;20203;-80
2021/01/20 07:54:33;;;;;;;4.65;2.03;;;6.50;99.90;;;;;;5063690;28;20236;-81
2021/01/20 07:57:00;;;;;;;5.35;2.90;;;6.70;99.90;;;;;;5063892;28;20240;-81
2021/01/20 07:59:27;;;;;;;5.75;2.65;;;6.50;99.90;;;;;;5061792;28;20209;-81
2021/01/20 08:02:05;;;;;;;5.32;2.95;;;6.50;99.90;;;;;;5079330;28;20713;-79
2021/01/20 08:04:32;;;;;;;6.60;2.15;;;6.50;99.90;;;;;;5070576;28;20312;-80
2021/01/20 08:06:58;;;;;;;5.75;2.80;;;6.70;99.90;;;;;;5071464;28;20229;-80
2021/01/20 08:09:36;;;;;;;4.22;2.72;;;6.60;99.90;;;;;;5072147;28;20210;-81
2021/01/20 08:12:04;;;;;;;4.65;2.42;;;6.70;99.90;;;;;;5056711;28;20225;-81
2021/01/20 08:14:31;;;;;;;4.40;2.20;;;6.70;99.90;;;;;;5069027;28;20198;-81
2021/01/20 08:16:59;;;;;;;5.50;2.53;;;6.80;99.90;;;;;;5074908;28;20325;-81
2021/01/20 08:19:25;;;;;;;3.08;1.75;;;7.00;99.90;;;;;;5072933;28;20201;-81
2021/01/20 08:21:52;;;;;;;6.90;2.42;;;7.00;99.90;;;;;;5075473;28;20224;-81
2021/01/20 08:24:23;;;;;;;3.50;1.90;;;7.00;99.90;;;;;;5057544;28;20221;-81
2021/01/20 08:26:54;;;;;;;10.00;2.55;;;7.00;99.90;;;;;;5055661;28;20909;-81
2021/01/20 08:29:22;;;;;;;4.25;2.13;;;7.10;99.90;;;;;;5059424;28;20207;-80
2021/01/20 08:32:07;;;;;;;6.45;2.65;;;7.20;99.90;;;;;;5060153;28;20294;-80
2021/01/20 08:34:35;;;;;;;4.82;2.30;;;7.40;99.90;;;;;;5054644;28;20207;-81
2021/01/20 08:37:04;;;;;;;4.10;2.40;;;7.40;99.90;;;;;;5059766;28;20230;-81
2021/01/20 08:39:32;;;;;;;5.68;2.00;;;7.10;99.90;;;;;;5059391;28;20767;-83
2021/01/20 08:42:21;;;;;;;5.22;2.40;;;7.30;99.90;;;;;;5065762;28;20212;-80
2021/01/20 08:45:29;;;;;;;7.85;2.67;;;7.20;99.90;;;;;;5077613;22;20235;-78
2021/01/20 08:47:59;;;;;;;5.00;2.33;;;7.20;99.90;;;;;;5053494;28;20208;-79
2021/01/20 08:50:37;;;;;;;4.65;2.45;;;7.10;99.90;;;;;;5074229;28;20202;-79
2021/01/20 08:53:05;;;;;;;9.38;3.00;;;7.10;99.90;;;;;;5077983;28;20210;-78
2021/01/20 08:55:33;;;;;;;4.75;2.60;;;7.20;99.90;;;;;;5046175;28;20234;-82
2021/01/20 08:58:35;;;;;;;5.75;2.92;;;7.30;99.90;;;;;;5037161;28;20607;-81
2021/01/20 09:01:04;;;;;;;6.03;2.35;;;7.20;99.90;;;;;;5026556;28;20249;-80
2021/01/20 09:03:33;;;;;;;4.55;2.30;;;7.10;99.90;;;;;;5024715;28;20219;-81
2021/01/20 09:06:01;;;;;;;6.60;2.70;;;7.40;99.90;;;;;;5035679;28;20234;-82
2021/01/20 09:08:29;;;;;;;7.45;2.80;;;7.30;99.90;;;;;;5036142;28;20215;-84
2021/01/20 09:10:57;;;;;;;6.45;3.33;;;7.30;99.90;;;;;;5035250;28;20298;-85
2021/01/20 09:13:24;;;;;;;5.93;2.60;;;7.40;99.90;;;;;;5037015;28;20214;-83
2021/01/20 09:15:52;;;;;;;7.75;4.10;;;7.30;99.90;;;;;;5036432;28;20536;-82
2021/01/20 09:18:19;;;;;;;6.18;2.83;;;7.30;99.90;;;;;;5037317;28;20290;-80
2021/01/20 09:20:47;;;;;;;5.25;2.65;;;7.50;99.90;;;;;;5033550;28;20204;-82
2021/01/20 09:23:14;;;;;;;12.15;2.80;;;7.30;99.90;;;;;;5037635;28;20219;-80
2021/01/20 09:25:41;;;;;;;5.28;2.65;;;7.30;99.90;;;;;;5037608;28;20227;-81
2021/01/20 09:28:10;;;;;;;5.68;2.03;;;7.30;99.90;;;;;;5021590;28;20275;-79
2021/01/20 09:30:37;;;;;;;7.50;2.85;;;7.50;99.90;;;;;;5037083;28;20225;-79
2021/01/20 09:33:04;;;;;;;6.85;3.17;;;7.60;99.90;;;;;;5036563;28;20699;-81
2021/01/20 09:35:31;;;;;;;7.55;2.22;;;7.80;99.90;;;;;;5035509;28;20227;-81
2021/01/20 09:37:59;;;;;;;5.80;3.00;;;7.70;99.90;;;;;;5036087;28;20199;-81
2021/01/20 09:40:27;;;;;;;6.20;2.90;;;7.80;99.90;;;;;;5036397;28;20261;-83
2021/01/20 09:42:54;;;;;;;5.70;2.65;;;7.80;99.90;;;;;;5036108;28;20293;-84
2021/01/20 09:45:27;;;;;;;9.88;4.93;;;7.80;99.90;;;;;;5036067;28;20237;-80
2021/01/20 09:47:54;;;;;;;6.53;2.97;;;7.90;99.90;;;;;;5036000;28;20284;-81
2021/01/20 09:50:21;;;;;;;4.95;2.50;;;8.00;99.90;;;;;;5036279;28;20211;-81
2021/01/20 09:52:47;;;;;;;6.93;3.45;;;7.70;99.90;;;;;;5037898;28;20246;-80
2021/01/20 09:55:15;;;;;;;6.20;2.42;;;7.90;99.90;;;;;;5037211;28;20790;-80
2021/01/20 09:57:42;;;;;;;6.75;2.95;;;7.80;99.90;;;;;;5045388;28;20191;-80
2021/01/20 10:00:11;;;;;;;5.95;2.33;;;7.80;99.90;;;;;;5051476;28;20211;-79
2021/01/20 10:02:40;;;;;;;4.60;2.80;;;7.80;99.90;;;;;;5041357;28;20237;-79
2021/01/20 10:05:09;;;;;;;5.97;3.25;;;7.90;99.90;;;;;;5048455;28;20280;-79
2021/01/20 10:07:36;;;;;;;7.78;3.63;;;8.00;99.90;;;;;;5052054;28;20266;-80
2021/01/20 10:10:07;;;;;;;12.07;2.70;;;8.10;99.90;;;;;;5046923;28;20313;-82
2021/01/20 10:12:34;;;;;;;6.93;3.03;;;7.80;99.90;;;;;;5036646;28;20188;-82
2021/01/20 10:15:01;;;;;;;7.28;3.00;;;8.20;99.90;;;;;;5035126;28;20669;-82
2021/01/20 10:17:27;;;;;;;5.67;3.00;;;7.80;99.90;;;;;;5035577;28;20418;-82
2021/01/20 10:19:54;;;;;;;6.35;2.50;;;8.10;99.90;;;;;;5040361;28;20454;-80
2021/01/20 10:22:27;;;;;;;5.93;3.20;;;7.90;99.90;;;;;;5040022;28;20207;-80
2021/01/20 10:24:53;;;;;;;10.63;2.60;;;8.20;99.90;;;;;;5047401;28;20239;-80
2021/01/20 10:27:20;;;;;;;7.75;3.38;;;8.20;99.90;;;;;;5046343;28;20229;-79
2021/01/20 10:29:47;;;;;;;4.88;2.38;;;8.00;99.90;;;;;;5049843;28;20218;-80
2021/01/20 10:32:14;;;;;;;5.47;2.60;;;7.90;99.70;;;;;;5045366;28;20253;-81
2021/01/20 10:34:41;;;;;;;6.40;2.75;;;8.10;99.90;;;;;;5041832;28;20296;-80
2021/01/20 10:37:07;;;;;;;6.60;3.50;;;8.20;99.70;;;;;;5047979;28;20246;-79
2021/01/20 10:39:34;;;;;;;4.40;2.30;;;8.10;99.70;;;;;;5040060;28;20457;-79
2021/01/20 10:42:00;;;;;;;5.90;2.50;;;8.20;99.50;;;;;;5039583;28;20206;-82
2021/01/20 10:44:27;;;;;;;9.40;3.30;;;8.30;99.40;;;;;;5038555;28;20489;-80
2021/01/20 10:46:54;;;;;;;9.00;2.70;;;8.30;99.50;;;;;;5037966;28;20816;-82
2021/01/20 10:49:21;;;;;;;7.22;3.50;;;8.30;99.70;;;;;;5037313;28;20212;-80
2021/01/20 10:51:49;;;;;;;6.85;3.13;;;8.20;99.60;;;;;;5036994;28;20595;-80
2021/01/20 10:54:16;;;;;;;10.20;2.53;;;8.30;99.60;;;;;;5037295;28;20199;-81
2021/01/20 10:56:42;;;;;;;9.10;3.00;;;8.50;99.40;;;;;;5037299;28;20234;-82
2021/01/20 10:59:09;;;;;;;7.93;3.23;;;8.60;99.10;;;;;;5036967;28;20488;-82
2021/01/20 11:01:36;;;;;;;11.57;3.23;;;8.40;98.70;;;;;;5037205;28;20507;-82
2021/01/20 11:04:03;;;;;;;3.95;2.15;;;8.40;98.60;;;;;;5038587;28;20514;-81
2021/01/20 11:06:30;;;;;;;6.97;3.08;;;8.40;98.40;;;;;;5037647;28;20239;-80
2021/01/20 11:08:59;;;;;;;6.60;2.87;;;8.20;98.50;;;;;;5038715;28;20207;-79
2021/01/20 11:11:26;;;;;;;5.97;3.50;;;8.30;98.60;;;;;;5037469;28;21008;-82
2021/01/20 11:13:53;;;;;;;5.90;2.78;;;8.50;98.50;;;;;;5037644;28;20623;-81
2021/01/20 11:16:19;;;;;;;9.00;2.97;;;8.50;98.20;;;;;;5038743;28;20301;-80
2021/01/20 11:18:46;;;;;;;8.93;3.65;;;8.50;98.00;;;;;;5038080;28;20931;-82
2021/01/20 11:21:15;;;;;;;11.02;3.70;;;8.50;97.80;;;;;;5038432;28;20203;-81
2021/01/20 11:23:42;;;;;;;12.03;4.30;;;8.80;97.70;;;;;;5038308;28;20223;-82
2021/01/20 11:26:10;;;;;;;8.03;4.40;;;8.90;97.60;;;;;;5039531;28;20460;-82
2021/01/20 11:28:37;;;;;;;9.90;4.00;;;8.80;97.50;;;;;;5038141;28;20932;-81
2021/01/20 11:31:04;;;;;;;8.55;4.00;;;8.90;97.30;;;;;;5038332;28;20481;-82
2021/01/20 11:33:31;;;;;;;10.07;3.70;;;8.80;97.30;;;;;;5039407;28;20210;-83
2021/01/20 11:35:58;;;;;;;4.50;2.93;;;9.00;97.30;;;;;;5039774;28;20470;-82
2021/01/20 11:38:25;;;;;;;8.80;3.20;;;8.90;97.10;;;;;;5038083;28;20432;-81
2021/01/20 11:40:52;;;;;;;12.67;3.83;;;9.00;97.20;;;;;;5038475;28;20457;-81
2021/01/20 11:43:18;;;;;;;12.70;3.83;;;9.00;97.40;;;;;;5037991;28;20466;-81
2021/01/20 11:45:45;;;;;;;8.50;3.90;;;8.90;97.40;;;;;;5037716;28;20950;-82
2021/01/20 11:48:11;;;;;;;10.63;3.33;;;9.00;97.30;;;;;;5039724;28;20456;-81
2021/01/20 11:50:38;;;;;;;12.73;3.95;;;8.90;97.30;;;;;;5041298;28;20454;-80
2021/01/20 11:53:04;;;;;;;9.90;3.67;;;8.90;97.00;;;;;;5039339;28;20291;-82
2021/01/20 11:55:32;;;;;;;17.17;4.83;;;9.10;97.00;;;;;;5040246;28;20470;-81
2021/01/20 11:57:58;;;;;;;10.10;3.70;;;9.00;96.90;;;;;;5040119;28;20435;-81
2021/01/20 12:00:25;;;;;;;10.43;5.60;;;8.80;96.90;;;;;;5040307;28;20588;-81
2021/01/20 12:02:52;;;;;;;6.00;4.17;;;8.90;97.00;;;;;;5039428;28;20744;-82
2021/01/20 12:05:18;;;;;;;9.48;4.63;;;8.70;97.20;;;;;;5040229;28;20489;-80
2021/01/20 12:07:46;;;;;;;10.63;3.90;;;8.80;97.40;;;;;;5040462;28;20211;-82
2021/01/20 12:10:13;;;;;;;8.40;3.72;;;8.90;97.60;;;;;;5038975;28;20524;-83
2021/01/20 12:12:41;;;;;;;10.20;3.88;;;9.00;97.40;;;;;;5039502;28;20238;-82
2021/01/20 12:15:09;;;;;;;6.63;3.38;;;8.90;97.30;;;;;;5029324;28;20292;-82
2021/01/20 12:17:35;;;;;;;12.38;4.05;;;9.10;97.40;;;;;;5040202;28;20214;-81
2021/01/20 12:20:03;;;;;;;9.60;3.55;;;9.10;97.10;;;;;;5028354;28;20206;-83
2021/01/20 12:22:30;;;;;;;16.88;3.42;;;9.30;97.10;;;;;;5042146;28;20202;-81
2021/01/20 12:24:56;;;;;;;12.00;4.65;;;8.80;96.90;;;;;;5039077;28;20578;-81
2021/01/20 12:27:23;;;;;;;11.30;4.03;;;9.20;97.20;;;;;;5043387;28;20206;-80
2021/01/20 12:29:50;;;;;;;11.93;4.37;;;9.00;96.90;;;;;;5044183;28;20443;-80
2021/01/20 12:32:17;;;;;;;6.03;3.43;;;9.30;96.90;;;;;;5040975;28;20456;-81
2021/01/20 12:34:43;;;;;;;5.80;3.58;;;9.40;96.70;;;;;;5043000;28;20474;-81
2021/01/20 12:37:10;;;;;;;13.03;4.33;;;9.40;96.70;;;;;;5043981;28;20229;-81
2021/01/20 12:39:37;;;;;;;10.70;3.83;;;9.20;96.80;;;;;;5054056;28;20458;-79
2021/01/20 12:42:04;;;;;;;20.15;5.20;;;9.20;96.80;;;;;;5054077;28;20454;-79
2021/01/20 12:44:31;;;;;;;9.80;4.07;;;8.90;96.90;;;;;;5040259;28;20227;-83
2021/01/20 12:46:58;;;;;;;7.23;3.47;;;9.40;97.10;;;;;;5039009;28;20459;-82
2021/01/20 12:49:25;;;;;;;14.27;3.70;;;9.30;97.10;;;;;;5039802;28;20822;-82
2021/01/20 12:51:51;;;;;;;10.27;3.97;;;9.40;97.20;;;;;;5039992;28;20463;-81
2021/01/20 12:54:18;;;;;;;9.90;4.03;;;9.30;97.10;;;;;;5039260;28;20199;-80
2021/01/20 12:56:45;;;;;;;14.13;4.30;;;9.30;96.90;;;;;;5043972;28;20571;-82
2021/01/20 12:59:11;;;;;;;8.97;3.97;;;9.40;97.20;;;;;;5039589;28;20488;-81
2021/01/20 13:01:38;;;;;;;11.23;4.40;;;9.40;97.20;;;;;;5021071;28;20430;-82
2021/01/20 13:04:06;;;;;;;16.87;5.70;;;9.50;97.10;;;;;;5036177;28;20481;-82